Aérodrome :
LOGIN :

S'inscrire | Disclaimer

   EN    FR    IT 

 










Légende :    VFR   VFR Marginal   IFR   IFR Intensif   IFR Très Intensif
Visi : 
Plafond : 
>= 8 km
>= 3000ft
5 à 8 km
1000 à 3000 ft
1500m à 5 km
500 à 1000 ft
800 à 1500m
200 à 500 ft
< 800m
< 200 ft
Symboles :   Orages  Brouillard  Fortes neiges  Fortes précipitations  Vent > 20 kt
SIGMETs :   Divers  Orages  Givrage  Turbulence  Onde Orograph.  Cendres Volcan.






- Altitude de l'aérodrome : 151 ft
- Code IATA : PES


ULPB - Petrozavodsk

DERNIER METAR :
  • 270200Z AUTO 25002MPS 7000 -SG ///004/// M10/M11 Q0999 RMK QBB120 QFE746/0994

METARs EXPIRÉS :
  • 270100Z AUTO VRB01MPS 8000 -SG ///003/// M09/M10 Q0999 RMK QBB110 QFE745/0994
  • 270000Z AUTO 31002MPS 280V360 2600 -SN BR M09/M10 Q0999 RMK QBB070 QFE745/0994
  • 262300Z AUTO 30002MPS 0750 0600E FZFG ///002/// M09/M10 Q0998 RMK QBB060 QFE745/0994

TAF TAF ULPB
Valide du 27 à 00h jusqu'au 27 à 09h UTC


262300Z 2700/2709 03003MPS 3100 BR BKN011
TEMPO 2700/2707 0800 FZFG BKN003
BECMG 2707/2709 6000 NSW



MET'MAP, la Météo Aéronautique d'un coup d'oeil ! - Copyright ORBIFLY Décembre 2007 - Disclaimer

ORBIFLY MET'MAP TEAM :

Programmation & Développement : Alexandra Zaïnal
Sur une idée originale de : Baudouin d'Aumeries
Assistance à la programmation : Marc-Olivier Méhu
Soutien technique & logistique : Manuel Goepfert

Contact : metmap@orbifly.com




SOURCES & CREDITS :

   NOAA